Time;durP1;ratioP1;P1;durP2;ratioP2;P2;SDS_P1;SDS_P2;PMS_P1;PMS_P2;Temp;Humidity;BMP_temperature;BMP_pressure;BME280_temperature;BME280_humidity;BME280_pressure;Samples;Min_cycle;Max_cycle;Signal;HPM_P1;HPM_P2
2023/05/28 00:00:44;;;;;;;6.20;2.83;;;12.50;71.60;;;;;;5015267;28;20433;-80
2023/05/28 00:03:10;;;;;;;5.22;3.10;;;12.40;71.70;;;;;;4997908;28;20026;-79
2023/05/28 00:05:36;;;;;;;5.60;2.83;;;12.40;71.80;;;;;;4997891;28;20032;-79
2023/05/28 00:08:02;;;;;;;9.65;3.03;;;12.40;72.10;;;;;;4999815;28;20042;-80
2023/05/28 00:10:28;;;;;;;5.07;3.03;;;12.40;72.40;;;;;;5015101;28;20018;-80
2023/05/28 00:12:54;;;;;;;7.85;3.30;;;12.30;72.60;;;;;;5025524;28;20069;-79
2023/05/28 00:15:20;;;;;;;5.15;2.15;;;12.40;73.10;;;;;;5016653;28;20022;-78
2023/05/28 00:17:46;;;;;;;7.88;2.80;;;12.30;73.00;;;;;;5015960;28;20038;-78
2023/05/28 00:20:12;;;;;;;4.10;2.80;;;12.30;73.30;;;;;;5015837;28;20028;-81
2023/05/28 00:22:38;;;;;;;3.50;2.63;;;12.30;73.60;;;;;;5015692;28;20028;-79
2023/05/28 00:25:04;;;;;;;6.28;2.92;;;12.20;73.80;;;;;;5015844;28;20029;-80
2023/05/28 00:27:30;;;;;;;10.65;2.75;;;12.20;74.00;;;;;;5010579;28;20036;-81
2023/05/28 00:29:56;;;;;;;7.05;2.83;;;12.10;74.10;;;;;;5015107;28;20100;-83
2023/05/28 00:32:22;;;;;;;5.85;2.75;;;12.20;74.40;;;;;;5015184;28;20104;-80
2023/05/28 00:34:48;;;;;;;4.97;2.65;;;12.10;74.40;;;;;;5001735;28;20021;-80
2023/05/28 00:37:14;;;;;;;4.35;2.58;;;12.10;74.70;;;;;;5013374;28;20040;-79
2023/05/28 00:39:40;;;;;;;4.43;2.42;;;12.00;74.90;;;;;;5013362;28;20113;-80
2023/05/28 00:42:10;;;;;;;5.53;2.67;;;11.90;75.40;;;;;;5014660;28;20040;-80
2023/05/28 00:44:37;;;;;;;7.32;2.58;;;11.90;75.60;;;;;;5014252;28;20018;-80
2023/05/28 00:47:04;;;;;;;6.72;2.63;;;11.80;75.80;;;;;;5014800;28;20022;-80
2023/05/28 00:49:30;;;;;;;3.42;2.28;;;11.80;76.10;;;;;;5015191;28;20025;-79
2023/05/28 00:51:56;;;;;;;4.55;3.10;;;11.80;76.40;;;;;;5028829;28;20028;-80
2023/05/28 00:54:25;;;;;;;5.35;2.25;;;11.80;76.60;;;;;;5021563;28;20053;-82
2023/05/28 00:56:53;;;;;;;5.40;2.50;;;11.80;76.70;;;;;;5015930;28;20076;-83
2023/05/28 00:59:21;;;;;;;5.55;2.35;;;11.80;76.70;;;;;;5000253;28;20041;-82
2023/05/28 01:01:47;;;;;;;;;;;11.80;76.80;;;;;;4998274;28;20026;-82
2023/05/28 01:04:13;;;;;;;7.97;2.85;;;11.80;76.40;;;;;;5015126;28;19906;-83
2023/05/28 01:06:39;;;;;;;6.53;2.78;;;11.70;77.00;;;;;;4980441;28;20125;-82
2023/05/28 01:09:06;;;;;;;4.85;2.60;;;11.70;77.40;;;;;;5013619;28;20022;-82
2023/05/28 01:11:33;;;;;;;7.80;2.63;;;11.60;77.90;;;;;;5014882;28;20032;-82
2023/05/28 01:14:00;;;;;;;6.13;2.03;;;11.50;78.10;;;;;;5015619;28;20109;-82
2023/05/28 01:16:27;;;;;;;5.95;2.72;;;11.50;78.30;;;;;;5014430;28;20047;-82
2023/05/28 01:18:55;;;;;;;4.88;2.30;;;11.50;78.50;;;;;;5013380;28;20077;-83
2023/05/28 01:21:25;;;;;;;4.63;2.50;;;11.50;78.70;;;;;;5020837;28;20026;-84
2023/05/28 01:23:52;;;;;;;8.10;2.30;;;11.40;78.90;;;;;;5014433;28;20029;-82
2023/05/28 01:26:18;;;;;;;7.55;3.08;;;11.40;79.00;;;;;;5014256;28;20018;-83
2023/05/28 01:28:48;;;;;;;8.63;2.25;;;11.40;79.10;;;;;;5014041;28;20395;-82
2023/05/28 01:31:15;;;;;;;3.95;2.10;;;11.40;79.40;;;;;;5014198;28;20364;-83
2023/05/28 01:33:42;;;;;;;6.82;3.25;;;11.40;79.60;;;;;;5012076;28;20033;-83
2023/05/28 01:36:32;;;;;;;3.95;2.15;;;11.30;79.70;;;;;;5023709;28;20026;-83
2023/05/28 01:39:02;;;;;;;4.65;2.80;;;11.30;79.70;;;;;;5007811;28;20450;-82
2023/05/28 01:41:29;;;;;;;5.63;2.92;;;11.30;80.10;;;;;;5014992;28;20090;-82
2023/05/28 01:43:55;;;;;;;4.72;2.55;;;11.30;80.20;;;;;;4996464;28;20594;-82
2023/05/28 01:46:23;;;;;;;4.72;2.22;;;11.30;80.40;;;;;;4996756;28;20032;-82
2023/05/28 01:48:49;;;;;;;4.40;2.53;;;11.30;80.40;;;;;;5014214;28;20022;-81
2023/05/28 01:51:22;;;;;;;4.32;2.30;;;11.20;80.40;;;;;;5014019;28;20033;-83
2023/05/28 01:53:48;;;;;;;5.88;2.10;;;11.20;80.90;;;;;;5019592;28;20076;-83
2023/05/28 01:56:14;;;;;;;5.32;2.65;;;11.10;81.10;;;;;;5017926;28;20030;-82
2023/05/28 01:58:40;;;;;;;9.07;2.88;;;11.10;81.50;;;;;;5013993;28;20096;-83
2023/05/28 02:01:35;;;;;;;4.28;2.35;;;11.20;81.30;;;;;;5014556;28;20049;-84
2023/05/28 02:04:01;;;;;;;5.97;2.92;;;11.10;81.40;;;;;;5014551;28;20033;-84
2023/05/28 02:06:32;;;;;;;5.68;3.28;;;11.20;81.50;;;;;;4997319;28;20030;-83
2023/05/28 02:08:58;;;;;;;3.67;2.35;;;11.10;81.70;;;;;;5019650;28;20030;-84
2023/05/28 02:11:25;;;;;;;3.17;2.10;;;11.10;81.80;;;;;;5024847;28;20022;-84
2023/05/28 02:13:52;;;;;;;2.63;2.13;;;11.00;82.00;;;;;;5016944;28;20059;-82
2023/05/28 02:16:18;;;;;;;4.57;2.20;;;11.00;82.10;;;;;;5017476;28;20049;-83
2023/05/28 02:18:50;;;;;;;4.68;2.60;;;11.10;82.20;;;;;;5014173;28;20111;-84
2023/05/28 02:21:17;;;;;;;8.38;2.60;;;11.10;82.20;;;;;;5005111;28;20018;-83
2023/05/28 02:23:46;;;;;;;7.57;2.60;;;11.10;82.30;;;;;;5013527;28;20064;-84
2023/05/28 02:26:12;;;;;;;4.53;2.15;;;11.10;82.50;;;;;;5013953;28;20025;-84
2023/05/28 02:28:42;;;;;;;4.25;2.15;;;10.90;82.80;;;;;;4996217;28;20022;-83
2023/05/28 02:31:08;;;;;;;3.53;1.85;;;10.90;83.30;;;;;;5012810;28;20379;-83
2023/05/28 02:33:34;;;;;;;3.17;2.13;;;11.00;83.30;;;;;;5011128;28;20135;-84
2023/05/28 02:36:00;;;;;;;3.53;2.40;;;11.00;83.30;;;;;;5012713;28;20041;-84
2023/05/28 02:38:26;;;;;;;5.07;2.30;;;11.10;83.10;;;;;;5011554;28;20140;-83
2023/05/28 02:40:52;;;;;;;5.00;1.90;;;11.20;83.00;;;;;;5012655;28;20022;-83
2023/05/28 02:43:18;;;;;;;4.60;2.10;;;11.20;82.70;;;;;;5025512;28;20384;-83
2023/05/28 02:45:44;;;;;;;3.13;1.60;;;11.30;82.60;;;;;;5017207;28;20026;-84
2023/05/28 02:48:10;;;;;;;4.85;2.33;;;11.30;82.60;;;;;;5018579;28;20103;-82
2023/05/28 02:50:35;;;;;;;5.95;2.28;;;11.30;82.50;;;;;;5015562;28;20014;-82
2023/05/28 02:53:03;;;;;;;5.90;2.00;;;11.30;82.50;;;;;;5022555;28;20096;-81
2023/05/28 02:55:28;;;;;;;2.65;1.73;;;11.20;82.70;;;;;;5033028;28;20041;-83
2023/05/28 02:57:54;;;;;;;7.60;2.35;;;11.30;82.80;;;;;;5015198;28;20049;-82
2023/05/28 03:00:21;;;;;;;4.43;1.50;;;11.40;82.80;;;;;;5017152;28;20030;-83
2023/05/28 03:02:47;;;;;;;4.67;2.17;;;11.40;82.30;;;;;;5019133;28;20022;-82
2023/05/28 03:05:13;;;;;;;4.40;2.13;;;11.40;82.30;;;;;;5022604;28;20275;-83
2023/05/28 03:07:39;;;;;;;8.40;2.17;;;11.40;82.40;;;;;;5023648;28;20034;-83
2023/05/28 03:10:05;;;;;;;4.88;2.00;;;11.60;82.20;;;;;;5022527;28;20021;-83
2023/05/28 03:12:31;;;;;;;5.43;1.85;;;11.70;81.80;;;;;;5013517;28;20027;-82
2023/05/28 03:14:57;;;;;;;6.93;2.72;;;11.70;81.60;;;;;;5019856;28;20018;-84
2023/05/28 03:17:22;;;;;;;5.28;2.13;;;11.60;81.70;;;;;;5019617;28;20030;-83
2023/05/28 03:19:48;;;;;;;3.90;2.15;;;11.60;82.00;;;;;;4998871;28;20057;-83
2023/05/28 03:22:14;;;;;;;3.00;1.85;;;11.70;82.00;;;;;;5016887;28;20537;-85
2023/05/28 03:24:40;;;;;;;6.50;2.13;;;11.70;81.60;;;;;;5036477;28;20026;-83
2023/05/28 03:27:06;;;;;;;4.32;2.45;;;11.60;81.70;;;;;;5041882;28;20022;-83
2023/05/28 03:29:32;;;;;;;3.63;1.67;;;11.60;82.00;;;;;;5033395;28;20033;-82
2023/05/28 03:31:58;;;;;;;2.40;1.70;;;11.60;82.20;;;;;;5026423;28;20159;-81
2023/05/28 03:34:24;;;;;;;6.85;2.70;;;11.50;82.40;;;;;;5015355;28;20018;-81
2023/05/28 03:36:50;;;;;;;3.50;1.73;;;11.40;82.80;;;;;;5016294;28;20034;-81
2023/05/28 03:39:16;;;;;;;3.05;2.55;;;11.50;82.90;;;;;;5011733;28;20038;-82
2023/05/28 03:41:44;;;;;;;4.93;2.22;;;11.50;82.80;;;;;;5012447;28;20022;-80
2023/05/28 03:44:10;;;;;;;3.00;1.67;;;11.60;82.50;;;;;;5012594;28;20049;-83
2023/05/28 03:46:37;;;;;;;6.97;2.72;;;11.60;82.50;;;;;;5013125;28;20030;-83
2023/05/28 03:49:03;;;;;;;3.83;2.05;;;11.70;82.80;;;;;;5012622;28;20026;-82
2023/05/28 03:51:29;;;;;;;3.38;1.83;;;11.70;82.90;;;;;;5013262;28;20022;-82
2023/05/28 03:53:55;;;;;;;5.10;2.20;;;11.80;82.40;;;;;;5012553;28;20046;-82
2023/05/28 03:56:20;;;;;;;5.05;2.72;;;12.00;82.20;;;;;;5012898;28;20056;-82
2023/05/28 03:58:46;;;;;;;3.45;2.53;;;12.10;81.70;;;;;;5012180;28;20034;-82
2023/05/28 04:01:12;;;;;;;6.43;2.03;;;12.10;81.50;;;;;;5011991;28;20022;-82
2023/05/28 04:03:38;;;;;;;2.65;2.05;;;12.20;81.30;;;;;;5010532;28;20104;-81
2023/05/28 04:06:04;;;;;;;5.10;2.63;;;12.10;81.10;;;;;;5011967;28;20064;-82
2023/05/28 04:08:30;;;;;;;6.05;2.88;;;12.00;81.80;;;;;;5011219;28;20041;-84
2023/05/28 04:10:56;;;;;;;6.60;2.30;;;12.00;81.80;;;;;;4996374;28;20399;-82
2023/05/28 04:13:22;;;;;;;8.60;2.28;;;12.00;81.90;;;;;;5012306;28;20453;-84
2023/05/28 04:15:48;;;;;;;5.38;2.63;;;11.90;82.00;;;;;;5016339;28;20053;-82
2023/05/28 04:18:14;;;;;;;7.13;3.33;;;12.00;82.50;;;;;;5016491;28;20030;-82
2023/05/28 04:20:41;;;;;;;4.75;2.50;;;12.20;82.40;;;;;;5016792;28;20025;-82
2023/05/28 04:23:08;;;;;;;3.10;1.98;;;12.50;81.30;;;;;;5017891;28;20064;-81
2023/05/28 04:25:34;;;;;;;3.63;2.00;;;12.70;80.00;;;;;;5016926;28;20037;-81
2023/05/28 04:28:02;;;;;;;3.30;2.22;;;12.70;79.90;;;;;;5016532;28;20026;-83
2023/05/28 04:30:28;;;;;;;3.90;2.10;;;12.70;79.80;;;;;;5016122;28;20022;-82
2023/05/28 04:32:55;;;;;;;5.70;2.33;;;12.50;80.10;;;;;;5017295;28;20026;-82
2023/05/28 04:35:22;;;;;;;6.57;2.90;;;12.50;80.30;;;;;;5015277;28;20080;-82
2023/05/28 04:37:50;;;;;;;4.35;2.42;;;12.60;80.40;;;;;;5015495;28;20034;-84
2023/05/28 04:40:17;;;;;;;11.48;2.30;;;12.80;80.40;;;;;;5018907;28;20040;-82
2023/05/28 04:42:43;;;;;;;4.32;2.75;;;13.00;79.90;;;;;;5018497;28;20030;-82
2023/05/28 04:45:10;;;;;;;5.63;2.20;;;13.00;78.90;;;;;;5015377;28;20061;-83
2023/05/28 04:47:39;;;;;;;4.88;2.75;;;12.90;79.00;;;;;;5015040;28;20045;-82
2023/05/28 04:50:06;;;;;;;4.82;2.63;;;12.60;79.70;;;;;;5012349;28;20033;-81
2023/05/28 04:52:35;;;;;;;7.77;2.80;;;12.40;80.60;;;;;;5015015;28;20133;-84
2023/05/28 04:55:03;;;;;;;5.43;2.80;;;12.30;81.20;;;;;;5016830;28;20258;-84
2023/05/28 04:57:30;;;;;;;6.82;2.63;;;12.40;81.50;;;;;;5030767;28;20103;-83
2023/05/28 04:59:56;;;;;;;6.43;3.13;;;12.50;81.00;;;;;;5016255;28;20041;-82
2023/05/28 05:02:23;;;;;;;7.95;3.17;;;12.70;81.00;;;;;;5018428;28;20115;-82
2023/05/28 05:04:49;;;;;;;6.05;3.20;;;12.90;80.70;;;;;;5018980;28;20022;-83
2023/05/28 05:07:16;;;;;;;5.85;3.17;;;13.10;79.70;;;;;;5021249;28;20104;-83
2023/05/28 05:09:42;;;;;;;;;;;13.10;79.60;;;;;;5030505;28;20025;-81
2023/05/28 05:12:09;;;;;;;7.55;2.80;;;13.30;79.30;;;;;;5006921;28;20285;-83
2023/05/28 05:14:35;;;;;;;5.32;2.67;;;13.60;78.60;;;;;;5016796;28;20022;-84
2023/05/28 05:17:03;;;;;;;4.80;2.15;;;13.90;77.80;;;;;;5018994;28;20558;-83
2023/05/28 05:19:29;;;;;;;6.57;2.60;;;14.20;77.50;;;;;;4999235;28;20087;-82
2023/05/28 05:21:55;;;;;;;3.85;1.90;;;14.40;75.40;;;;;;5019156;28;20022;-84
2023/05/28 05:24:22;;;;;;;6.10;2.83;;;14.40;75.10;;;;;;5035761;28;20026;-83
2023/05/28 05:26:48;;;;;;;5.70;3.33;;;14.30;75.00;;;;;;5002621;28;20520;-83
2023/05/28 05:29:14;;;;;;;6.82;3.00;;;14.00;75.10;;;;;;5015833;28;20045;-83
2023/05/28 05:31:40;;;;;;;3.92;2.50;;;13.70;76.20;;;;;;5015759;28;20026;-85
2023/05/28 05:34:06;;;;;;;5.18;2.58;;;13.50;76.60;;;;;;4996974;28;20048;-83
2023/05/28 05:36:32;;;;;;;8.55;3.13;;;13.30;77.20;;;;;;5014860;28;20379;-83
2023/05/28 05:38:58;;;;;;;6.22;3.25;;;13.30;77.80;;;;;;5014949;28;20080;-82
2023/05/28 05:41:25;;;;;;;7.07;3.08;;;13.40;78.00;;;;;;5015195;28;20122;-83
2023/05/28 05:43:51;;;;;;;5.35;2.72;;;13.40;77.90;;;;;;5013497;28;20495;-83
2023/05/28 05:46:17;;;;;;;6.22;2.70;;;13.40;77.90;;;;;;5013761;28;20076;-84
2023/05/28 05:48:42;;;;;;;5.93;2.30;;;13.40;77.50;;;;;;5013902;28;20033;-84
2023/05/28 05:51:16;;;;;;;2.97;2.30;;;13.40;77.50;;;;;;4995916;28;20101;-84
2023/05/28 05:53:45;;;;;;;5.53;2.70;;;13.50;77.60;;;;;;5019083;28;20045;-83
2023/05/28 05:56:11;;;;;;;7.35;3.13;;;13.50;77.60;;;;;;5012871;28;20122;-84
2023/05/28 05:58:37;;;;;;;5.80;3.05;;;13.40;77.70;;;;;;5017783;28;20523;-84
2023/05/28 06:01:08;;;;;;;8.20;3.22;;;13.30;78.00;;;;;;5022028;28;20040;-82
2023/05/28 06:03:35;;;;;;;6.57;2.80;;;13.20;78.50;;;;;;5013663;28;20026;-85
2023/05/28 06:06:01;;;;;;;4.28;2.40;;;13.20;78.30;;;;;;4996204;28;20117;-83
2023/05/28 06:08:27;;;;;;;6.63;2.67;;;13.20;78.40;;;;;;5014022;28;20108;-84
2023/05/28 06:10:53;;;;;;;6.47;2.60;;;13.10;78.90;;;;;;5015118;28;20025;-84
2023/05/28 06:13:20;;;;;;;8.70;3.45;;;13.10;79.10;;;;;;5016936;28;20395;-84
2023/05/28 06:15:46;;;;;;;;;;;13.00;79.40;;;;;;5014373;28;20018;-82
2023/05/28 06:18:12;;;;;;;6.97;3.53;;;12.90;80.00;;;;;;5015416;28;20012;-83
2023/05/28 06:20:38;;;;;;;4.70;2.88;;;12.60;80.90;;;;;;5016009;28;20053;-82
2023/05/28 06:23:04;;;;;;;5.88;3.00;;;12.60;81.50;;;;;;5022990;28;20156;-83
2023/05/28 06:25:30;;;;;;;6.00;3.97;;;12.60;81.60;;;;;;5014528;28;20022;-84
2023/05/28 06:27:56;;;;;;;6.35;3.20;;;12.60;81.70;;;;;;5017924;28;20018;-83
2023/05/28 06:30:23;;;;;;;8.93;3.20;;;12.70;81.50;;;;;;5017159;28;20156;-85
2023/05/28 06:32:48;;;;;;;3.53;2.50;;;12.70;81.50;;;;;;5016546;28;20022;-85
2023/05/28 06:35:14;;;;;;;4.35;2.85;;;12.70;81.80;;;;;;5016028;28;20022;-84
2023/05/28 06:37:40;;;;;;;6.80;2.95;;;12.80;81.70;;;;;;5015754;28;20395;-83
2023/05/28 06:40:07;;;;;;;9.00;3.15;;;12.90;81.10;;;;;;5013810;28;20086;-85
2023/05/28 06:42:33;;;;;;;4.47;2.75;;;13.00;81.50;;;;;;5014650;28;20028;-86
2023/05/28 06:44:59;;;;;;;4.18;2.40;;;13.20;80.40;;;;;;5015404;28;20546;-85
2023/05/28 06:47:26;;;;;;;8.45;3.65;;;13.20;80.20;;;;;;5013835;28;20057;-85
2023/05/28 06:49:52;;;;;;;7.07;3.33;;;13.20;80.50;;;;;;5014787;28;20018;-86
2023/05/28 06:52:19;;;;;;;7.40;3.60;;;13.40;80.00;;;;;;5019801;28;20293;-87
2023/05/28 06:54:45;;;;;;;8.37;3.70;;;13.40;80.20;;;;;;5022157;28;20033;-85
2023/05/28 06:57:11;;;;;;;8.70;3.70;;;13.30;79.80;;;;;;5015842;28;20095;-85
2023/05/28 06:59:36;;;;;;;4.07;2.58;;;13.20;80.00;;;;;;5029805;28;20104;-86
2023/05/28 07:02:02;;;;;;;2.85;2.35;;;13.00;80.40;;;;;;5016298;28;20022;-85
2023/05/28 07:04:28;;;;;;;7.53;2.78;;;12.80;81.10;;;;;;4996110;28;20391;-85
2023/05/28 07:06:54;;;;;;;9.55;3.53;;;12.50;82.00;;;;;;5027311;28;20076;-84
2023/05/28 07:09:20;;;;;;;7.63;4.38;;;12.40;83.00;;;;;;5017918;28;20019;-86
2023/05/28 07:11:46;;;;;;;10.85;3.95;;;12.50;83.50;;;;;;5018083;28;20096;-85
2023/05/28 07:14:12;;;;;;;8.45;3.13;;;12.60;82.90;;;;;;5003622;28;20014;-86
2023/05/28 07:16:38;;;;;;;4.53;3.05;;;12.60;82.80;;;;;;5030094;28;20049;-85
2023/05/28 07:19:04;;;;;;;6.03;2.60;;;12.70;82.90;;;;;;5016735;28;20037;-84
2023/05/28 07:21:32;;;;;;;6.65;2.65;;;12.70;82.80;;;;;;5019436;28;20022;-83
2023/05/28 07:23:58;;;;;;;5.60;2.70;;;12.80;83.00;;;;;;5019216;28;20732;-83
2023/05/28 07:26:25;;;;;;;3.80;2.38;;;12.90;82.40;;;;;;5018125;28;20022;-81
2023/05/28 07:28:51;;;;;;;8.48;2.63;;;12.80;82.50;;;;;;5015915;28;20036;-81
2023/05/28 07:31:16;;;;;;;4.57;3.13;;;12.80;83.40;;;;;;5014813;28;20049;-83
2023/05/28 07:33:42;;;;;;;8.05;3.97;;;13.00;82.70;;;;;;4996798;28;20159;-82
2023/05/28 07:36:10;;;;;;;6.15;2.97;;;13.30;83.90;;;;;;4995459;28;20025;-84
2023/05/28 07:38:35;;;;;;;7.75;3.05;;;14.90;84.10;;;;;;5013322;28;20113;-83
2023/05/28 07:41:04;;;;;;;5.53;2.75;;;16.80;76.10;;;;;;5013050;28;20531;-83
2023/05/28 07:43:30;;;;;;;5.78;2.97;;;17.10;72.50;;;;;;5012247;28;20096;-82
2023/05/28 07:45:56;;;;;;;3.85;2.72;;;16.60;72.50;;;;;;5012151;28;20018;-83
2023/05/28 07:48:22;;;;;;;6.18;3.75;;;16.00;74.10;;;;;;5014470;28;20125;-82
2023/05/28 07:50:49;;;;;;;4.50;2.85;;;15.60;76.10;;;;;;5018950;28;20018;-84
2023/05/28 07:53:18;;;;;;;7.82;2.97;;;15.50;76.30;;;;;;5017935;28;20045;-85
2023/05/28 07:55:47;;;;;;;3.85;2.72;;;15.20;75.90;;;;;;4998565;28;20037;-85
2023/05/28 07:58:13;;;;;;;6.65;3.65;;;15.10;77.10;;;;;;5017877;28;20064;-84
2023/05/28 08:00:40;;;;;;;5.32;3.00;;;14.90;77.50;;;;;;5026529;28;20026;-82
2023/05/28 08:03:06;;;;;;;5.78;2.83;;;14.80;77.50;;;;;;5026366;28;20025;-84
2023/05/28 08:05:32;;;;;;;8.73;3.47;;;14.60;78.10;;;;;;5019580;28;20025;-83
2023/05/28 08:07:59;;;;;;;6.15;2.78;;;14.60;78.80;;;;;;5020505;28;20403;-81
2023/05/28 08:10:25;;;;;;;4.78;3.17;;;14.70;77.70;;;;;;5021136;28;20028;-83
2023/05/28 08:12:51;;;;;;;4.45;2.92;;;14.70;78.20;;;;;;4999020;28;20038;-83
2023/05/28 08:15:17;;;;;;;6.22;3.08;;;15.20;78.10;;;;;;5010909;28;20033;-82
2023/05/28 08:17:43;;;;;;;6.05;2.92;;;15.80;76.20;;;;;;5016073;28;20030;-84
2023/05/28 08:20:09;;;;;;;4.25;3.10;;;16.50;74.80;;;;;;5018174;28;20028;-83
2023/05/28 08:22:36;;;;;;;5.05;3.00;;;17.30;71.40;;;;;;5017851;28;20029;-86
2023/05/28 08:25:02;;;;;;;6.20;3.20;;;17.50;68.80;;;;;;5015284;28;20018;-82
2023/05/28 08:27:28;;;;;;;6.47;3.90;;;17.20;69.00;;;;;;5014414;28;20022;-83
2023/05/28 08:29:54;;;;;;;8.57;3.55;;;16.70;69.30;;;;;;5017699;28;20024;-83
2023/05/28 08:32:20;;;;;;;3.95;3.13;;;16.30;70.60;;;;;;5019524;28;20072;-83
2023/05/28 08:34:46;;;;;;;6.07;3.80;;;16.00;70.50;;;;;;5020640;28;20025;-87
2023/05/28 08:37:13;;;;;;;6.55;3.45;;;15.50;72.30;;;;;;5024447;28;20017;-85
2023/05/28 08:39:40;;;;;;;8.60;3.95;;;15.10;73.80;;;;;;5021047;28;20034;-85
2023/05/28 08:42:06;;;;;;;9.15;4.43;;;14.70;75.80;;;;;;5022480;28;20091;-84
2023/05/28 08:44:32;;;;;;;7.55;4.85;;;14.40;78.60;;;;;;5024732;28;20379;-85
2023/05/28 08:47:00;;;;;;;7.75;4.63;;;14.00;81.10;;;;;;5003855;28;20499;-85
2023/05/28 08:49:47;;;;;;;6.82;3.97;;;13.70;83.60;;;;;;5000841;28;20030;-87
2023/05/28 08:52:17;;;;;;;7.97;3.70;;;13.40;84.20;;;;;;5007096;28;20382;-88
2023/05/28 08:54:43;;;;;;;6.28;3.42;;;13.20;84.00;;;;;;5014977;28;20593;-83
2023/05/28 08:57:10;;;;;;;7.78;3.70;;;13.10;83.80;;;;;;5015901;28;20104;-82
2023/05/28 08:59:36;;;;;;;8.73;4.10;;;13.10;84.30;;;;;;5012457;28;20131;-83
2023/05/28 09:02:03;;;;;;;6.07;3.90;;;13.20;84.90;;;;;;5028920;28;20045;-84
2023/05/28 09:04:29;;;;;;;6.63;4.00;;;13.90;84.90;;;;;;5040382;28;20039;-87
2023/05/28 09:06:56;;;;;;;5.45;3.38;;;15.40;80.90;;;;;;5037794;28;20025;-88
2023/05/28 09:09:22;;;;;;;4.93;3.35;;;17.10;76.10;;;;;;5033794;28;20030;-85
2023/05/28 09:11:48;;;;;;;5.65;3.63;;;18.70;69.90;;;;;;5015294;28;20057;-86
2023/05/28 09:14:16;;;;;;;5.00;3.30;;;20.10;65.20;;;;;;5025498;28;20014;-87
2023/05/28 09:16:43;;;;;;;6.82;3.50;;;21.20;60.50;;;;;;5001197;28;20506;-87
2023/05/28 09:19:10;;;;;;;5.32;3.47;;;22.90;58.20;;;;;;5016322;28;20125;-81
2023/05/28 09:21:37;;;;;;;6.22;2.78;;;24.60;53.00;;;;;;5019113;28;20475;-86
2023/05/28 09:24:07;;;;;;;7.90;3.85;;;25.00;49.90;;;;;;5010072;28;20038;-96
2023/05/28 09:26:33;;;;;;;9.15;3.63;;;24.30;49.60;;;;;;4989145;28;20113;-84
2023/05/28 09:29:00;;;;;;;5.63;2.85;;;23.40;50.40;;;;;;4997408;28;20432;-86
2023/05/28 09:31:32;;;;;;;4.22;3.28;;;22.10;51.70;;;;;;5014707;28;20040;-83
2023/05/28 09:34:03;;;;;;;5.65;3.40;;;20.80;54.40;;;;;;5015126;28;20022;-82
2023/05/28 09:36:30;;;;;;;8.98;3.67;;;;;;;;;;5013892;28;20034;-84
2023/05/28 09:38:56;;;;;;;7.65;3.72;;;19.70;56.80;;;;;;5015607;28;20058;-86
2023/05/28 09:41:24;;;;;;;6.07;3.55;;;18.80;60.60;;;;;;5018925;28;20375;-84
2023/05/28 09:44:01;;;;;;;5.82;3.38;;;19.00;60.10;;;;;;5019299;28;20391;-84
2023/05/28 09:46:34;;;;;;;3.78;2.75;;;19.00;59.70;;;;;;5012548;28;20427;-86
2023/05/28 09:49:05;;;;;;;3.92;2.95;;;19.40;59.10;;;;;;5000347;28;20029;-85
2023/05/28 09:51:32;;;;;;;5.05;3.10;;;20.00;58.50;;;;;;5020370;28;20032;-86
2023/05/28 09:54:01;;;;;;;7.70;3.55;;;21.80;55.90;;;;;;4997444;28;20045;-83
2023/05/28 09:56:32;;;;;;;5.93;4.03;;;23.70;52.00;;;;;;4992280;28;20026;-91
2023/05/28 09:59:02;;;;;;;5.95;3.80;;;25.40;49.60;;;;;;5007088;28;20053;-91
2023/05/28 10:02:05;;;;;;;8.32;3.90;;;26.70;46.80;;;;;;5019850;28;20023;-93
2023/05/28 10:04:37;;;;;;;5.30;4.07;;;27.60;46.00;;;;;;5002851;28;20110;-92
2023/05/28 10:07:31;;;;;;;5.57;3.85;;;28.40;43.30;;;;;;5009585;28;20085;-95
2023/05/28 10:09:59;;;;;;;5.07;3.50;;;28.60;43.00;;;;;;5012018;28;20064;-90
2023/05/28 10:12:28;;;;;;;4.20;2.90;;;27.70;42.20;;;;;;5005870;28;20022;-92
2023/05/28 10:14:55;;;;;;;6.63;3.28;;;26.80;43.40;;;;;;5018276;28;20025;-88
2023/05/28 10:17:23;;;;;;;5.88;3.28;;;26.30;42.50;;;;;;5019611;28;20051;-86
2023/05/28 10:19:49;;;;;;;7.30;3.00;;;25.40;43.90;;;;;;5026064;28;20038;-88
2023/05/28 10:22:16;;;;;;;;;;;24.40;46.40;;;;;;5010029;28;20030;-89
2023/05/28 10:24:45;;;;;;;5.28;3.33;;;24.20;46.50;;;;;;5010659;28;19911;-88
2023/05/28 10:27:18;;;;;;;5.70;3.10;;;23.50;46.10;;;;;;5005752;28;20550;-88
2023/05/28 10:29:48;;;;;;;7.63;3.78;;;22.20;47.50;;;;;;5002715;28;20438;-89
2023/05/28 10:32:17;;;;;;;4.95;3.10;;;21.10;50.10;;;;;;5004438;28;20029;-90
2023/05/28 10:34:44;;;;;;;8.43;3.55;;;20.20;52.50;;;;;;5015682;28;20040;-89
2023/05/28 10:37:12;;;;;;;5.38;3.28;;;19.50;54.30;;;;;;5004714;28;20083;-89
2023/05/28 10:39:45;;;;;;;8.57;3.53;;;18.90;55.90;;;;;;5015190;28;20053;-88
2023/05/28 10:42:21;;;;;;;4.60;3.25;;;18.40;57.70;;;;;;5026004;28;20079;-86
2023/05/28 10:45:00;;;;;;;5.50;3.15;;;18.10;58.10;;;;;;5020055;28;20022;-89
2023/05/28 10:47:37;;;;;;;4.18;2.97;;;17.80;59.30;;;;;;5002519;28;20059;-91
2023/05/28 10:50:08;;;;;;;;;;;17.90;59.80;;;;;;5021105;28;20085;-90
2023/05/28 10:52:35;;;;;;;7.22;3.65;;;17.90;58.80;;;;;;5040697;28;19916;-88
2023/05/28 10:55:08;;;;;;;7.47;2.67;;;17.80;59.10;;;;;;5025400;28;20007;-90
2023/05/28 10:57:43;;;;;;;4.60;3.13;;;17.70;59.40;;;;;;5023794;28;20034;-91
2023/05/28 11:00:23;;;;;;;3.92;3.05;;;17.40;60.00;;;;;;5008875;28;20026;-89
2023/05/28 11:02:52;;;;;;;5.68;3.28;;;17.10;60.60;;;;;;5007521;28;20045;-91
2023/05/28 11:05:24;;;;;;;4.32;3.13;;;17.00;61.80;;;;;;5014481;28;20058;-90
2023/05/28 11:07:51;;;;;;;4.68;2.92;;;16.90;63.30;;;;;;5011036;28;20420;-92
2023/05/28 11:10:17;;;;;;;5.65;3.20;;;16.80;63.50;;;;;;5005563;28;20042;-90
2023/05/28 11:12:47;;;;;;;6.88;3.35;;;16.70;63.60;;;;;;5003602;28;20026;-89
2023/05/28 11:15:13;;;;;;;6.95;3.47;;;16.80;63.80;;;;;;5001293;28;20118;-89
2023/05/28 11:17:49;;;;;;;4.55;2.90;;;16.90;63.80;;;;;;4998267;28;20114;-90
2023/05/28 11:20:28;;;;;;;6.57;3.78;;;16.90;63.70;;;;;;5018783;28;20039;-90
2023/05/28 11:22:57;;;;;;;7.60;3.40;;;17.00;63.90;;;;;;5007771;28;20046;-92
2023/05/28 11:25:29;;;;;;;8.50;3.90;;;17.00;64.50;;;;;;5032915;28;20022;-92
2023/05/28 11:28:04;;;;;;;4.70;3.40;;;17.00;63.40;;;;;;5018984;28;20230;-92
2023/05/28 11:30:35;;;;;;;6.43;3.22;;;17.00;62.20;;;;;;5022244;28;20037;-92
2023/05/28 11:33:12;;;;;;;9.45;3.20;;;16.90;62.10;;;;;;5013920;28;20042;-91
2023/05/28 11:35:38;;;;;;;7.72;2.97;;;16.70;62.40;;;;;;5010280;28;20080;-91
2023/05/28 11:38:04;;;;;;;4.32;3.00;;;16.60;62.20;;;;;;5029941;28;20034;-84
2023/05/28 11:40:34;;;;;;;6.95;3.13;;;16.60;62.40;;;;;;5002868;28;20030;-80
2023/05/28 11:43:01;;;;;;;3.75;2.83;;;16.50;62.30;;;;;;5015257;28;20040;-80
2023/05/28 11:45:27;;;;;;;5.78;2.83;;;16.40;62.50;;;;;;5013676;28;20113;-79
2023/05/28 11:47:54;;;;;;;4.80;2.90;;;16.40;63.00;;;;;;4997257;28;20493;-80
2023/05/28 11:50:22;;;;;;;7.67;3.00;;;16.50;62.90;;;;;;5001887;28;20065;-79
2023/05/28 11:52:47;;;;;;;;;;;16.70;62.20;;;;;;5011506;28;20296;-80
2023/05/28 11:55:15;;;;;;;6.00;2.75;;;16.80;61.60;;;;;;4995964;28;19906;-82
2023/05/28 11:57:56;;;;;;;3.97;2.92;;;16.90;61.60;;;;;;5015568;28;20034;-80
2023/05/28 12:00:33;;;;;;;6.35;3.00;;;17.10;61.40;;;;;;4997205;28;20023;-80
2023/05/28 12:03:00;;;;;;;5.60;2.80;;;17.20;60.90;;;;;;4996382;28;20157;-82
2023/05/28 12:05:26;;;;;;;7.03;2.88;;;17.30;61.30;;;;;;4995790;28;20105;-82
2023/05/28 12:07:53;;;;;;;5.25;2.90;;;17.50;60.10;;;;;;4998182;28;20076;-80
2023/05/28 12:10:26;;;;;;;4.82;2.78;;;17.60;59.10;;;;;;5013535;28;20026;-83
2023/05/28 12:12:55;;;;;;;6.07;3.10;;;17.70;58.50;;;;;;4998797;28;20047;-82
2023/05/28 12:15:27;;;;;;;6.95;2.13;;;17.70;57.00;;;;;;4993008;28;20074;-83
2023/05/28 12:17:55;;;;;;;21.40;3.90;;;17.40;53.40;;;;;;4996618;28;20034;-83
2023/05/28 12:20:21;;;;;;;10.20;2.50;;;17.10;53.80;;;;;;5011031;28;20026;-81
2023/05/28 12:22:58;;;;;;;7.40;2.50;;;16.70;56.20;;;;;;4995975;28;20311;-81
2023/05/28 12:25:24;;;;;;;5.13;2.60;;;15.90;59.40;;;;;;4991009;28;20014;-82
2023/05/28 12:27:50;;;;;;;4.97;2.38;;;15.10;62.20;;;;;;4996177;28;20023;-82
2023/05/28 12:30:16;;;;;;;5.00;2.70;;;14.30;64.40;;;;;;4997113;28;20030;-82
2023/05/28 12:32:42;;;;;;;7.70;2.92;;;13.70;67.90;;;;;;4996226;28;20490;-82
2023/05/28 12:35:08;;;;;;;6.05;2.28;;;13.30;70.80;;;;;;4995938;28;20034;-81
2023/05/28 12:37:34;;;;;;;6.65;2.42;;;13.10;71.30;;;;;;5000437;28;20029;-80
2023/05/28 12:40:00;;;;;;;6.05;1.95;;;13.10;72.30;;;;;;4995332;28;20073;-80
2023/05/28 12:42:26;;;;;;;6.53;2.10;;;13.40;73.20;;;;;;4995421;28;20568;-79
2023/05/28 12:44:52;;;;;;;6.35;2.10;;;13.80;71.20;;;;;;4995166;28;20396;-80
2023/05/28 12:47:18;;;;;;;4.63;1.85;;;14.20;70.70;;;;;;4997748;28;20018;-81
2023/05/28 12:49:44;;;;;;;5.47;2.42;;;14.60;69.70;;;;;;4996397;28;20037;-80